createdAt,value
2022-12-31T05:15:59.796Z,11.81
2022-12-31T05:18:26.339Z,11.65
2022-12-31T05:20:52.863Z,11.52
2022-12-31T05:23:19.393Z,11.57
2022-12-31T05:25:47.023Z,11.77
2022-12-31T05:28:14.296Z,11.82
2022-12-31T05:30:41.965Z,11.63
2022-12-31T05:33:08.643Z,11.61
2022-12-31T05:35:35.192Z,11.65
2022-12-31T05:38:01.618Z,11.63
2022-12-31T05:40:28.781Z,11.73
2022-12-31T05:42:55.260Z,11.92
2022-12-31T05:45:26.720Z,11.97
2022-12-31T05:47:57.446Z,11.76
2022-12-31T05:50:24.143Z,11.81
2022-12-31T05:52:56.099Z,11.88
2022-12-31T05:55:23.422Z,11.87
2022-12-31T05:57:49.922Z,11.91
2022-12-31T06:00:16.680Z,12.03
2022-12-31T06:02:44.930Z,11.85
2022-12-31T06:05:12.210Z,11.71
2022-12-31T06:07:38.733Z,12.08
2022-12-31T06:10:05.870Z,12.19
2022-12-31T06:12:32.381Z,12.09
2022-12-31T06:14:58.917Z,12.15
2022-12-31T06:17:25.553Z,12.33
2022-12-31T06:19:52.545Z,11.84
2022-12-31T06:22:19.068Z,11.96
2022-12-31T06:24:46.561Z,11.88
2022-12-31T06:27:13.454Z,12.13
2022-12-31T06:29:40.068Z,12.22
2022-12-31T06:32:06.734Z,12.25
2022-12-31T06:34:33.449Z,12.26
2022-12-31T06:37:02.018Z,12.29
2022-12-31T06:39:28.784Z,12.33
2022-12-31T06:41:55.457Z,12.24
2022-12-31T06:44:22.609Z,12.08
2022-12-31T06:46:49.912Z,12.46
2022-12-31T06:49:16.492Z,12.16
2022-12-31T06:51:45.863Z,12.22
2022-12-31T06:54:13.257Z,12.39
2022-12-31T06:56:40.514Z,12.46
2022-12-31T06:59:29.707Z,12.70
2022-12-31T07:02:31.458Z,12.60
2022-12-31T07:05:10.868Z,12.19
2022-12-31T07:07:55.394Z,12.39
2022-12-31T07:11:19.513Z,12.22
2022-12-31T07:14:13.188Z,12.22
2022-12-31T07:17:05.349Z,12.60
2022-12-31T07:19:52.406Z,12.86
2022-12-31T07:22:22.207Z,12.71
2022-12-31T07:24:49.054Z,12.54
2022-12-31T07:27:21.578Z,12.35
2022-12-31T07:30:03.253Z,12.29
2022-12-31T07:32:45.077Z,12.98
2022-12-31T07:35:29.692Z,12.43
2022-12-31T07:38:07.849Z,12.17
2022-12-31T07:41:09.493Z,12.33
2022-12-31T07:43:46.783Z,12.42
2022-12-31T07:46:15.649Z,12.55
2022-12-31T07:48:42.476Z,12.76
2022-12-31T07:51:10.699Z,12.41
2022-12-31T07:53:39.286Z,12.43
2022-12-31T07:56:09.621Z,12.35
2022-12-31T07:58:39.614Z,12.31
2022-12-31T08:01:12.860Z,12.43
2022-12-31T08:03:52.919Z,12.14
2022-12-31T08:06:37.973Z,12.49
2022-12-31T08:09:25.896Z,12.30
2022-12-31T08:11:58.045Z,12.72
2022-12-31T08:14:26.443Z,12.52
2022-12-31T08:16:53.993Z,12.36
2022-12-31T08:19:27.108Z,12.82
2022-12-31T08:22:13.539Z,12.49
2022-12-31T08:24:49.311Z,12.51
2022-12-31T08:27:30.597Z,12.84
2022-12-31T08:30:09.528Z,12.17
2022-12-31T08:32:50.112Z,12.39
2022-12-31T08:36:01.944Z,12.64
2022-12-31T08:38:43.305Z,12.45
2022-12-31T08:41:30.108Z,12.76
2022-12-31T08:44:12.141Z,12.58
2022-12-31T08:47:03.854Z,12.41
2022-12-31T08:49:34.824Z,12.51
2022-12-31T08:52:03.823Z,12.39
2022-12-31T08:54:31.631Z,12.79
2022-12-31T08:57:20.187Z,11.92
2022-12-31T09:00:04.679Z,12.33
2022-12-31T09:02:49.534Z,12.38
2022-12-31T09:05:45.863Z,12.11
2022-12-31T09:08:35.376Z,12.39
2022-12-31T09:11:31.828Z,12.02
2022-12-31T09:14:35.815Z,12.19
2022-12-31T09:17:10.997Z,11.99
2022-12-31T09:19:37.534Z,12.45
2022-12-31T09:22:05.453Z,12.26
2022-12-31T09:24:32.432Z,12.08
2022-12-31T09:27:27.421Z,12.52
2022-12-31T09:30:01.863Z,12.18
2022-12-31T09:33:01.203Z,11.92
2022-12-31T09:35:52.890Z,12.57
2022-12-31T09:38:43.824Z,12.32
2022-12-31T09:41:34.957Z,12.47
2022-12-31T09:44:32.179Z,12.28
2022-12-31T09:47:26.109Z,11.99
2022-12-31T09:50:28.380Z,12.62
2022-12-31T09:53:14.934Z,12.13
2022-12-31T09:56:15.780Z,12.80
2022-12-31T09:59:22.738Z,12.20
2022-12-31T10:02:19.934Z,12.41
2022-12-31T10:05:09.576Z,12.27
2022-12-31T10:08:02.144Z,12.85
2022-12-31T10:10:54.928Z,12.67
2022-12-31T10:13:35.110Z,12.38
2022-12-31T10:16:06.232Z,12.95
2022-12-31T10:19:11.764Z,12.33
2022-12-31T10:22:15.474Z,12.81
2022-12-31T10:24:56.975Z,13.02
2022-12-31T10:27:26.450Z,12.81
2022-12-31T10:30:13.797Z,13.02
2022-12-31T10:33:02.095Z,12.37
2022-12-31T10:35:39.897Z,12.81
2022-12-31T10:38:40.408Z,12.79
2022-12-31T10:41:36.403Z,13.50
2022-12-31T10:44:22.591Z,13.36
2022-12-31T10:47:07.875Z,13.10
2022-12-31T10:49:56.413Z,13.78
2022-12-31T10:52:42.195Z,13.07
2022-12-31T10:55:44.835Z,13.32
2022-12-31T10:58:54.989Z,13.18
2022-12-31T11:01:32.704Z,13.16
2022-12-31T11:04:21.208Z,13.03
2022-12-31T11:07:10.143Z,12.88
2022-12-31T11:10:20.089Z,12.41
2022-12-31T11:13:24.516Z,13.30
2022-12-31T11:16:13.968Z,13.02
2022-12-31T11:19:05.977Z,13.13
2022-12-31T11:21:47.701Z,13.11
2022-12-31T11:24:42.270Z,13.09
2022-12-31T11:27:24.062Z,13.10
2022-12-31T11:30:19.362Z,13.06
2022-12-31T11:32:55.806Z,13.11
2022-12-31T11:35:22.308Z,13.08
2022-12-31T11:37:55.686Z,13.78
2022-12-31T11:40:59.714Z,13.79
2022-12-31T11:43:49.493Z,13.52
2022-12-31T11:46:44.921Z,14.04
2022-12-31T11:49:45.060Z,14.18
2022-12-31T11:52:21.379Z,13.41
2022-12-31T11:54:48.251Z,13.58
2022-12-31T11:57:30.069Z,13.38
2022-12-31T12:00:04.629Z,13.83
2022-12-31T12:02:43.979Z,14.39
2022-12-31T12:05:16.740Z,14.67
2022-12-31T12:07:43.362Z,13.98
2022-12-31T12:10:42.925Z,14.22
2022-12-31T12:13:20.593Z,14.55
2022-12-31T12:15:51.255Z,15.58
2022-12-31T12:18:28.309Z,14.60
2022-12-31T12:21:09.804Z,14.31
2022-12-31T12:23:36.775Z,14.53
2022-12-31T12:26:04.317Z,14.64
2022-12-31T12:28:44.525Z,15.15
2022-12-31T12:31:21.118Z,14.31
2022-12-31T12:33:50.137Z,14.80
2022-12-31T12:36:19.121Z,15.06
2022-12-31T12:38:45.755Z,15.26
2022-12-31T12:41:21.549Z,14.73
2022-12-31T12:43:48.108Z,14.78
2022-12-31T12:46:35.366Z,15.09
2022-12-31T12:49:03.720Z,15.37
2022-12-31T12:51:48.086Z,15.76
2022-12-31T12:54:42.169Z,15.31
2022-12-31T12:57:24.800Z,14.81
2022-12-31T13:00:09.816Z,16.10
2022-12-31T13:02:54.858Z,16.54
2022-12-31T13:05:33.516Z,15.15
2022-12-31T13:08:16.791Z,15.00
2022-12-31T13:11:04.672Z,14.73
2022-12-31T13:13:51.836Z,15.09
2022-12-31T13:16:42.651Z,15.01
2022-12-31T13:19:36.726Z,15.32
2022-12-31T13:22:36.889Z,15.93
2022-12-31T13:25:26.489Z,14.76
2022-12-31T13:27:57.383Z,15.07
2022-12-31T13:30:44.168Z,15.29
2022-12-31T13:33:18.463Z,14.81
2022-12-31T13:36:00.704Z,14.82
2022-12-31T13:38:31.783Z,15.29
2022-12-31T13:40:58.353Z,16.15
2022-12-31T13:43:45.781Z,16.05
2022-12-31T13:46:19.030Z,16.61
2022-12-31T13:48:56.861Z,16.65
2022-12-31T13:51:42.220Z,15.60
2022-12-31T13:54:30.155Z,15.54
2022-12-31T13:57:04.861Z,14.75
2022-12-31T13:59:46.732Z,14.46
2022-12-31T14:02:40.612Z,14.99
2022-12-31T14:05:23.303Z,14.95
2022-12-31T14:07:55.879Z,14.43
2022-12-31T14:10:32.491Z,14.27
2022-12-31T14:13:14.560Z,14.06
2022-12-31T14:16:24.276Z,13.88
2022-12-31T14:19:18.442Z,13.99
2022-12-31T14:22:02.529Z,14.41
2022-12-31T14:24:46.288Z,14.54
2022-12-31T14:27:21.806Z,14.12
2022-12-31T14:29:54.962Z,14.55
2022-12-31T14:33:00.510Z,13.92
2022-12-31T14:35:48.244Z,13.61
2022-12-31T14:38:24.803Z,13.81
2022-12-31T14:41:00.259Z,13.78
2022-12-31T14:43:48.502Z,13.34
2022-12-31T14:46:31.704Z,13.59
2022-12-31T14:49:18.822Z,13.55
2022-12-31T14:51:45.328Z,13.73
2022-12-31T14:54:37.965Z,13.68
2022-12-31T14:57:16.754Z,13.44
2022-12-31T15:00:00.362Z,13.43
2022-12-31T15:02:28.594Z,13.54
2022-12-31T15:05:10.584Z,13.67
2022-12-31T15:08:06.355Z,13.37
2022-12-31T15:10:57.263Z,13.54
2022-12-31T15:13:52.494Z,13.23
2022-12-31T15:16:37.957Z,13.37
2022-12-31T15:19:28.860Z,13.46
2022-12-31T15:22:06.615Z,13.49
2022-12-31T15:24:33.101Z,13.22
2022-12-31T15:27:03.028Z,13.65
2022-12-31T15:29:56.337Z,12.79
2022-12-31T15:32:32.426Z,13.20
2022-12-31T15:35:22.203Z,12.91
2022-12-31T15:38:16.584Z,13.09
2022-12-31T15:40:52.473Z,13.21
2022-12-31T15:43:25.155Z,13.13
2022-12-31T15:45:55.251Z,13.06
2022-12-31T15:48:28.012Z,13.21
2022-12-31T15:50:58.667Z,12.81
2022-12-31T15:53:38.747Z,13.07
2022-12-31T15:56:07.685Z,13.07
2022-12-31T15:58:36.621Z,13.15
2022-12-31T16:01:24.210Z,13.17
2022-12-31T16:04:02.781Z,13.08
2022-12-31T16:06:31.460Z,13.25
2022-12-31T16:08:58.682Z,13.04
2022-12-31T16:11:27.319Z,13.34
2022-12-31T16:13:55.857Z,12.71
2022-12-31T16:16:28.951Z,13.47
2022-12-31T16:18:56.703Z,13.48
2022-12-31T16:21:34.852Z,13.00
2022-12-31T16:24:06.951Z,13.13
2022-12-31T16:26:48.626Z,13.15
2022-12-31T16:29:18.004Z,12.97
2022-12-31T16:31:45.895Z,12.95
2022-12-31T16:34:18.866Z,12.81
2022-12-31T16:37:02.098Z,12.91
2022-12-31T16:39:34.699Z,12.67
2022-12-31T16:42:14.738Z,13.22
2022-12-31T16:44:41.623Z,12.79
2022-12-31T16:47:15.223Z,12.78
2022-12-31T16:49:42.846Z,12.38
2022-12-31T16:52:30.674Z,12.57
2022-12-31T16:54:59.425Z,12.77
2022-12-31T16:57:30.581Z,12.59
2022-12-31T17:00:06.927Z,12.20
2022-12-31T17:02:39.117Z,12.63
2022-12-31T17:05:18.628Z,12.70
2022-12-31T17:07:45.135Z,12.30
2022-12-31T17:10:32.818Z,12.35
2022-12-31T17:13:28.317Z,12.33
2022-12-31T17:15:50.125Z,12.43
2022-12-31T17:18:29.927Z,12.46
2022-12-31T17:21:07.940Z,12.18
2022-12-31T17:23:36.526Z,12.36
2022-12-31T17:26:13.402Z,12.95
2022-12-31T17:28:49.132Z,12.68
2022-12-31T17:34:12.515Z,12.86
2022-12-31T17:36:42.018Z,12.74
2022-12-31T17:39:18.055Z,12.53
2022-12-31T17:41:47.255Z,12.38
2022-12-31T17:44:21.302Z,12.53
2022-12-31T17:46:51.759Z,12.42
2022-12-31T17:49:22.053Z,12.95
2022-12-31T17:51:49.389Z,12.52
2022-12-31T17:54:17.417Z,12.27
2022-12-31T17:56:46.503Z,12.48
2022-12-31T17:59:25.864Z,12.39
2022-12-31T18:01:53.277Z,12.82
2022-12-31T18:04:21.611Z,12.55
2022-12-31T18:06:48.509Z,12.15
2022-12-31T18:09:16.725Z,12.48
2022-12-31T18:11:44.137Z,12.25
2022-12-31T18:14:18.015Z,12.46
2022-12-31T18:16:44.743Z,12.21
2022-12-31T18:19:45.666Z,12.82
2022-12-31T18:22:03.294Z,12.48
2022-12-31T18:24:30.156Z,12.35
2022-12-31T18:26:56.834Z,12.76
2022-12-31T18:29:23.715Z,12.62
2022-12-31T18:31:51.173Z,12.77
2022-12-31T18:34:18.912Z,13.09
2022-12-31T18:36:46.794Z,12.73
2022-12-31T18:39:14.061Z,12.51
2022-12-31T18:41:49.228Z,12.62
2022-12-31T18:44:17.261Z,12.40
2022-12-31T18:46:44.122Z,12.63
2022-12-31T18:49:11.161Z,12.63
2022-12-31T18:51:37.976Z,12.48
2022-12-31T18:54:05.120Z,12.26
2022-12-31T18:56:32.191Z,12.81
2022-12-31T18:59:00.038Z,12.63
2022-12-31T19:01:38.005Z,12.40
2022-12-31T19:04:10.954Z,12.56
2022-12-31T19:06:37.798Z,12.67
2022-12-31T19:09:13.210Z,12.24
2022-12-31T19:11:51.965Z,12.13
2022-12-31T19:14:23.393Z,12.08
2022-12-31T19:16:52.229Z,12.32
2022-12-31T19:19:19.235Z,12.14
2022-12-31T19:21:46.482Z,12.30
2022-12-31T19:24:27.783Z,12.35
2022-12-31T19:26:55.193Z,11.63
2022-12-31T19:29:24.446Z,11.91
2022-12-31T19:31:51.702Z,11.79
2022-12-31T19:34:18.596Z,12.37
2022-12-31T19:36:46.006Z,12.26
2022-12-31T19:39:19.282Z,11.98
2022-12-31T19:41:50.125Z,12.72
2022-12-31T19:44:21.413Z,12.12
2022-12-31T19:46:49.422Z,12.34
2022-12-31T19:49:16.368Z,12.66
2022-12-31T19:51:43.851Z,12.60
2022-12-31T19:54:12.962Z,11.99
2022-12-31T19:56:39.806Z,11.93
2022-12-31T19:59:07.852Z,11.85
2022-12-31T20:01:34.759Z,11.87
2022-12-31T20:04:01.969Z,12.54
2022-12-31T20:06:29.001Z,12.05
2022-12-31T20:08:55.768Z,11.81
2022-12-31T20:11:25.797Z,11.67
2022-12-31T20:13:54.118Z,11.90
2022-12-31T20:16:23.361Z,11.28
2022-12-31T20:18:50.956Z,11.30
2022-12-31T20:21:26.999Z,11.35
2022-12-31T20:23:54.950Z,11.71
2022-12-31T20:26:23.646Z,11.47
2022-12-31T20:28:51.409Z,11.57
2022-12-31T20:31:25.211Z,11.55
2022-12-31T20:33:54.388Z,11.84
2022-12-31T20:36:22.150Z,11.56
2022-12-31T20:38:49.708Z,11.55
2022-12-31T20:41:22.418Z,11.79
2022-12-31T20:43:50.074Z,11.61
2022-12-31T20:46:25.346Z,11.74
2022-12-31T20:48:55.290Z,11.96
2022-12-31T20:51:23.502Z,11.62
2022-12-31T20:53:52.944Z,11.75
2022-12-31T20:56:20.015Z,11.93
2022-12-31T20:58:47.508Z,11.77
2022-12-31T21:01:16.051Z,11.68
2022-12-31T21:06:31.836Z,12.26
2022-12-31T21:09:01.341Z,11.87
2022-12-31T21:11:47.371Z,12.16
2022-12-31T21:14:14.715Z,12.32
2022-12-31T21:16:41.984Z,11.74
2022-12-31T21:19:14.998Z,11.61
2022-12-31T21:21:42.734Z,11.69
2022-12-31T21:24:09.652Z,11.44
2022-12-31T21:26:36.910Z,12.11
2022-12-31T21:29:03.638Z,11.83
2022-12-31T21:31:30.784Z,11.40
2022-12-31T21:34:01.786Z,12.14
2022-12-31T21:36:28.616Z,11.65
2022-12-31T21:38:56.452Z,11.82
2022-12-31T21:41:42.100Z,12.18
2022-12-31T21:44:12.267Z,12.07
2022-12-31T21:46:45.252Z,11.91
2022-12-31T21:49:21.734Z,12.15
2022-12-31T21:52:07.410Z,11.85
2022-12-31T21:54:52.853Z,11.72
2022-12-31T21:58:24.130Z,11.94
2022-12-31T22:00:49.505Z,11.71
2022-12-31T22:03:25.269Z,11.60
2022-12-31T22:05:56.212Z,11.48
2022-12-31T22:08:24.371Z,11.66
2022-12-31T22:10:53.013Z,11.54
2022-12-31T22:13:20.733Z,11.83
2022-12-31T22:15:49.343Z,11.21
2022-12-31T22:18:16.961Z,11.33
2022-12-31T22:20:43.864Z,11.71
2022-12-31T22:23:10.638Z,11.17
2022-12-31T22:25:38.756Z,11.18
2022-12-31T22:30:53.571Z,11.17
2022-12-31T22:33:20.537Z,11.08
2022-12-31T22:36:10.705Z,10.89
2022-12-31T22:38:38.921Z,11.53
2022-12-31T22:41:08.014Z,10.98
2022-12-31T22:43:37.611Z,11.46
2022-12-31T22:46:12.779Z,10.88
2022-12-31T22:48:40.684Z,10.80
2022-12-31T22:51:09.586Z,10.93
2022-12-31T22:53:38.817Z,11.07
2022-12-31T22:56:06.781Z,10.95
2022-12-31T22:58:35.620Z,11.51
